Time;durP1;ratioP1;P1;durP2;ratioP2;P2;SDS_P1;SDS_P2;PMS_P1;PMS_P2;Temp;Humidity;BMP_temperature;BMP_pressure;BME280_temperature;BME280_humidity;BME280_pressure;Samples;Min_cycle;Max_cycle;Signal;HPM_P1;HPM_P2
2021/11/24 00:17:55;;;;;;;5.32;3.62;;;;;;;;;;4719393;28;20083;-66
2021/11/24 00:20:21;;;;;;;6.35;4.45;;;;;;;;;;4215592;34;20090;-65
2021/11/24 00:22:47;;;;;;;7.18;4.30;;;;;;;;;;4206277;34;20121;-71
2021/11/24 00:25:13;;;;;;;5.28;3.55;;;;;;;;;;4218330;34;20104;-66
2021/11/24 00:27:39;;;;;;;5.62;4.05;;;;;;;;;;4218234;34;20196;-71
2021/11/24 00:30:07;;;;;;;4.85;3.78;;;;;;;;;;4205676;34;20093;-70
2021/11/24 00:32:34;;;;;;;5.32;4.15;;;;;;;;;;4218348;34;20125;-71
2021/11/24 00:35:00;;;;;;;5.70;4.15;;;;;;;;;;4205681;34;20101;-71
2021/11/24 00:37:28;;;;;;;5.50;3.62;;;;;;;;;;4218436;34;20120;-71
2021/11/24 00:39:54;;;;;;;5.00;3.55;;;;;;;;;;4218288;34;20108;-67
2021/11/24 00:42:20;;;;;;;5.35;3.83;;;;;;;;;;4218517;34;20121;-68
2021/11/24 00:44:47;;;;;;;4.20;3.62;;;;;;;;;;4218283;34;20681;-67
2021/11/24 00:47:13;;;;;;;5.43;3.95;;;;;;;;;;4218399;34;20115;-67
2021/11/24 00:49:39;;;;;;;9.52;4.22;;;;;;;;;;4218113;34;20121;-67
2021/11/24 00:52:07;;;;;;;5.35;3.62;;;;;;;;;;4218209;34;20121;-67
2021/11/24 00:54:33;;;;;;;6.15;4.05;;;;;;;;;;4217998;34;20089;-67
2021/11/24 00:56:59;;;;;;;6.87;4.12;;;;;;;;;;4218181;34;20128;-67
2021/11/24 00:59:25;;;;;;;8.80;4.28;;;;;;;;;;4217915;34;20110;-67
2021/11/24 01:01:51;;;;;;;5.53;3.92;;;;;;;;;;4218135;34;20550;-67
2021/11/24 01:04:18;;;;;;;6.05;4.30;;;;;;;;;;4218097;34;20562;-66
2021/11/24 01:06:44;;;;;;;6.70;4.55;;;;;;;;;;4218149;34;20620;-66
2021/11/24 01:09:10;;;;;;;7.95;4.15;;;;;;;;;;4217957;34;20105;-67
2021/11/24 01:11:36;;;;;;;6.85;4.15;;;;;;;;;;4218151;34;20544;-66
2021/11/24 01:14:02;;;;;;;5.03;4.00;;;;;;;;;;4217957;34;20094;-66
2021/11/24 01:16:28;;;;;;;5.30;4.30;;;;;;;;;;4217974;34;20132;-67
2021/11/24 01:18:54;;;;;;;7.30;4.28;;;;;;;;;;4217677;34;20137;-67
2021/11/24 01:21:20;;;;;;;4.15;3.53;;;;;;;;;;4217972;34;20125;-67
2021/11/24 01:23:46;;;;;;;5.40;3.90;;;;;;;;;;4217871;34;20448;-67
2021/11/24 01:26:13;;;;;;;7.05;4.50;;;;;;;;;;4218801;34;20117;-66
2021/11/24 01:28:39;;;;;;;5.95;4.18;;;;;;;;;;4219774;34;20113;-67
2021/11/24 01:31:05;;;;;;;5.82;4.37;;;;;;;;;;4219924;34;20125;-67
2021/11/24 01:33:32;;;;;;;7.03;4.70;;;;;;;;;;4219706;34;20106;-67
2021/11/24 01:35:58;;;;;;;5.50;4.18;;;;;;;;;;4220207;34;20479;-66
2021/11/24 01:38:24;;;;;;;6.40;4.47;;;;;;;;;;4219778;34;20513;-67
2021/11/24 01:40:50;;;;;;;4.78;4.28;;;;;;;;;;4219844;34;20118;-66
2021/11/24 01:43:17;;;;;;;8.55;4.30;;;;;;;;;;4219842;34;20202;-66
2021/11/24 01:45:43;;;;;;;7.10;4.32;;;;;;;;;;4220117;34;20128;-66
2021/11/24 01:48:09;;;;;;;6.12;4.22;;;;;;;;;;4219785;34;20129;-67
2021/11/24 01:50:35;;;;;;;6.10;4.62;;;;;;;;;;4219708;34;20122;-66
2021/11/24 01:53:02;;;;;;;5.43;4.05;;;;;;;;;;4219755;34;20124;-66
2021/11/24 01:55:28;;;;;;;4.32;3.70;;;;;;;;;;4219748;34;20188;-66
2021/11/24 01:57:55;;;;;;;6.55;4.55;;;;;;;;;;4206655;34;20128;-66
2021/11/24 02:00:27;;;;;;;7.55;5.12;;;;;;;;;;4219646;34;20187;-66
2021/11/24 02:02:54;;;;;;;4.57;3.95;;;;;;;;;;4219664;33;20211;-66
2021/11/24 02:05:20;;;;;;;6.07;3.45;;;;;;;;;;4219631;34;20192;-67
2021/11/24 02:07:46;;;;;;;5.43;3.37;;;;;;;;;;4219679;33;20212;-67
2021/11/24 02:10:12;;;;;;;4.35;3.55;;;;;;;;;;4206562;34;20185;-66
2021/11/24 02:12:39;;;;;;;5.57;3.85;;;;;;;;;;4206938;34;20113;-66
2021/11/24 02:15:06;;;;;;;5.85;3.53;;;;;;;;;;4206599;34;20114;-67
2021/11/24 02:17:33;;;;;;;4.37;3.40;;;;;;;;;;4219472;33;20109;-66
2021/11/24 02:19:59;;;;;;;5.53;3.97;;;;;;;;;;4219429;34;20201;-66
2021/11/24 02:22:25;;;;;;;5.35;3.47;;;;;;;;;;4219515;34;20624;-66
2021/11/24 02:24:51;;;;;;;6.65;3.83;;;;;;;;;;4219563;34;20105;-66
2021/11/24 02:27:17;;;;;;;5.40;3.60;;;;;;;;;;4219412;34;20470;-66
2021/11/24 02:29:47;;;;;;;4.78;3.72;;;;;;;;;;4219584;34;20089;-66
2021/11/24 02:32:14;;;;;;;5.18;3.80;;;;;;;;;;4219320;34;20104;-66
2021/11/24 02:34:40;;;;;;;5.07;3.83;;;;;;;;;;4219236;34;20536;-66
2021/11/24 02:37:06;;;;;;;6.07;3.67;;;;;;;;;;4219201;34;20133;-66
2021/11/24 02:39:32;;;;;;;6.20;3.83;;;;;;;;;;4219420;34;20116;-66
2021/11/24 02:41:58;;;;;;;5.68;3.80;;;;;;;;;;4219375;34;20123;-66
2021/11/24 02:44:35;;;;;;;4.18;3.47;;;;;;;;;;4219413;34;20233;-64
2021/11/24 02:47:12;;;;;;;5.72;3.50;;;;;;;;;;4219515;34;20191;-65
2021/11/24 02:49:41;;;;;;;6.10;4.00;;;;;;;;;;4219388;34;20105;-66
2021/11/24 02:52:07;;;;;;;7.50;3.70;;;;;;;;;;4219168;34;20128;-66
2021/11/24 02:54:34;;;;;;;7.55;3.83;;;;;;;;;;4219327;34;20125;-65
2021/11/24 02:57:02;;;;;;;5.72;3.78;;;;;;;;;;4219358;34;20525;-67
2021/11/24 02:59:28;;;;;;;4.28;3.75;;;;;;;;;;4219431;34;20153;-65
2021/11/24 03:01:54;;;;;;;7.00;3.53;;;;;;;;;;4219108;34;20171;-64
2021/11/24 03:04:28;;;;;;;4.75;3.65;;;;;;;;;;4219255;34;20120;-66
2021/11/24 03:06:58;;;;;;;8.43;3.85;;;;;;;;;;4206371;34;20134;-67
2021/11/24 03:09:25;;;;;;;4.80;3.72;;;;;;;;;;4206044;34;20109;-66
2021/11/24 03:11:52;;;;;;;8.75;4.18;;;;;;;;;;4219076;34;20536;-66
2021/11/24 03:14:18;;;;;;;4.37;3.80;;;;;;;;;;4219129;34;20101;-66
2021/11/24 03:16:44;;;;;;;9.52;4.43;;;;;;;;;;4219057;34;20152;-66
2021/11/24 03:19:10;;;;;;;5.15;3.80;;;;;;;;;;4218755;34;20505;-66
2021/11/24 03:21:36;;;;;;;12.25;4.43;;;;;;;;;;4219168;34;20224;-66
2021/11/24 03:24:02;;;;;;;6.57;3.78;;;;;;;;;;4219018;34;20209;-67
2021/11/24 03:26:29;;;;;;;9.02;4.62;;;;;;;;;;4219011;34;20185;-67
2021/11/24 03:28:54;;;;;;;7.72;3.90;;;;;;;;;;4218975;34;20113;-67
2021/11/24 03:31:20;;;;;;;5.97;3.70;;;;;;;;;;4218875;34;20104;-69
2021/11/24 03:33:47;;;;;;;7.68;4.10;;;;;;;;;;4219099;34;20825;-67
2021/11/24 03:36:13;;;;;;;9.07;3.95;;;;;;;;;;4218858;34;20252;-64
2021/11/24 03:38:39;;;;;;;5.82;4.00;;;;;;;;;;4218718;34;20122;-70
2021/11/24 03:41:05;;;;;;;6.35;3.97;;;;;;;;;;4218729;34;20124;-65
2021/11/24 03:43:31;;;;;;;5.28;3.90;;;;;;;;;;4218743;34;20136;-65
2021/11/24 03:45:57;;;;;;;6.82;3.67;;;;;;;;;;4218787;34;20522;-66
2021/11/24 03:48:23;;;;;;;6.55;3.70;;;;;;;;;;4218421;34;20563;-66
2021/11/24 03:50:50;;;;;;;5.05;3.83;;;;;;;;;;4218855;34;20106;-66
2021/11/24 03:53:16;;;;;;;4.28;3.45;;;;;;;;;;4218957;34;20113;-69
2021/11/24 03:55:43;;;;;;;5.75;3.70;;;;;;;;;;4218821;34;20201;-66
2021/11/24 03:58:09;;;;;;;4.62;3.55;;;;;;;;;;4219195;34;20098;-64
2021/11/24 04:00:36;;;;;;;5.57;3.85;;;;;;;;;;4219262;34;20192;-65
2021/11/24 04:03:02;;;;;;;5.32;3.87;;;;;;;;;;4218753;34;20124;-64
2021/11/24 04:05:29;;;;;;;8.73;4.37;;;;;;;;;;4218693;34;20193;-63
2021/11/24 04:07:55;;;;;;;6.22;4.15;;;;;;;;;;4218723;34;20136;-63
2021/11/24 04:10:21;;;;;;;6.20;4.03;;;;;;;;;;4218536;34;20565;-65
2021/11/24 04:12:47;;;;;;;6.10;4.20;;;;;;;;;;4218674;34;20121;-65
2021/11/24 04:15:17;;;;;;;4.85;3.83;;;;;;;;;;4218688;34;20109;-64
2021/11/24 04:17:44;;;;;;;5.50;4.00;;;;;;;;;;4218514;34;20541;-64
2021/11/24 04:20:12;;;;;;;4.15;3.72;;;;;;;;;;4218501;34;20173;-65
2021/11/24 04:22:38;;;;;;;6.65;4.15;;;;;;;;;;4205768;34;20109;-64
2021/11/24 04:25:05;;;;;;;6.28;4.35;;;;;;;;;;4218519;34;20506;-65
2021/11/24 04:27:31;;;;;;;4.75;3.70;;;;;;;;;;4218449;34;20113;-65
2021/11/24 04:29:57;;;;;;;8.25;4.50;;;;;;;;;;4218453;34;20681;-64
2021/11/24 04:32:24;;;;;;;5.37;3.97;;;;;;;;;;4218409;34;20430;-65
2021/11/24 04:34:50;;;;;;;6.03;4.35;;;;;;;;;;4218848;34;20105;-66
2021/11/24 04:37:17;;;;;;;4.60;4.03;;;;;;;;;;4218385;34;20197;-67
2021/11/24 04:39:43;;;;;;;5.72;3.50;;;;;;;;;;4218385;34;20223;-67
2021/11/24 04:42:09;;;;;;;5.00;3.92;;;;;;;;;;4218358;34;20212;-67
2021/11/24 04:44:36;;;;;;;6.12;3.75;;;;;;;;;;4218451;34;20201;-67
2021/11/24 04:47:02;;;;;;;8.68;4.53;;;;;;;;;;4218417;34;20192;-65
2021/11/24 04:49:28;;;;;;;5.82;3.58;;;;;;;;;;4218724;34;20107;-66
2021/11/24 04:51:54;;;;;;;6.45;3.97;;;;;;;;;;4218302;34;20112;-67
2021/11/24 04:54:20;;;;;;;5.05;3.83;;;;;;;;;;4218410;34;20111;-67
2021/11/24 04:56:46;;;;;;;4.35;3.53;;;;;;;;;;4218529;34;20121;-65
2021/11/24 04:59:13;;;;;;;6.10;4.10;;;;;;;;;;4218286;34;20148;-66
2021/11/24 05:01:39;;;;;;;6.35;4.32;;;;;;;;;;4218113;34;20109;-64
2021/11/24 05:04:05;;;;;;;5.53;4.28;;;;;;;;;;4218225;34;20514;-64
2021/11/24 05:06:31;;;;;;;4.43;3.62;;;;;;;;;;4218238;34;20117;-64
2021/11/24 05:08:57;;;;;;;5.18;4.20;;;;;;;;;;4218014;34;20186;-66
2021/11/24 05:11:23;;;;;;;6.10;4.20;;;;;;;;;;4218033;34;20205;-65
2021/11/24 05:13:55;;;;;;;8.77;5.00;;;;;;;;;;4205322;34;20518;-66
2021/11/24 05:16:23;;;;;;;4.90;4.10;;;;;;;;;;4218196;34;20122;-65
2021/11/24 05:18:49;;;;;;;10.27;4.85;;;;;;;;;;4217843;34;20113;-65
2021/11/24 05:23:49;;;;;;;6.65;4.53;;;;;;;;;;4215107;34;20209;-66
2021/11/24 05:26:15;;;;;;;4.15;3.72;;;;;;;;;;4217778;34;20779;-66
2021/11/24 05:28:41;;;;;;;5.15;3.90;;;;;;;;;;4217491;33;20112;-66
2021/11/24 05:31:08;;;;;;;6.35;3.87;;;;;;;;;;4217529;34;20125;-66
2021/11/24 05:33:35;;;;;;;5.75;4.30;;;;;;;;;;4217691;34;20220;-68
2021/11/24 05:36:05;;;;;;;7.07;4.05;;;;;;;;;;4217735;34;20108;-65
2021/11/24 05:38:32;;;;;;;7.18;4.95;;;;;;;;;;4217638;34;20537;-65
2021/11/24 05:40:59;;;;;;;6.03;4.30;;;;;;;;;;4217748;34;20121;-65
2021/11/24 05:43:27;;;;;;;5.62;4.10;;;;;;;;;;4217635;34;20125;-64
2021/11/24 05:48:20;;;;;;;6.40;4.20;;;;;;;;;;4217432;34;20550;-61
2021/11/24 05:50:47;;;;;;;6.15;3.97;;;;;;;;;;4217544;34;20100;-64
2021/11/24 05:53:16;;;;;;;7.50;4.55;;;;;;;;;;4216294;33;20137;-62
2021/11/24 05:55:43;;;;;;;5.50;4.60;;;;;;;;;;4217453;34;20203;-64
2021/11/24 05:58:10;;;;;;;5.72;3.78;;;;;;;;;;4217481;34;20117;-63
2021/11/24 06:00:36;;;;;;;4.40;3.65;;;;;;;;;;4204324;34;20121;-63
2021/11/24 06:03:04;;;;;;;4.50;3.60;;;;;;;;;;4216823;34;20136;-63
2021/11/24 06:05:30;;;;;;;4.72;3.75;;;;;;;;;;4216965;34;20136;-61
2021/11/24 06:07:56;;;;;;;5.95;4.10;;;;;;;;;;4216153;34;20140;-63
2021/11/24 06:10:23;;;;;;;5.22;4.03;;;;;;;;;;4217471;34;20566;-62
2021/11/24 06:12:49;;;;;;;5.93;4.00;;;;;;;;;;4219189;34;20125;-62
2021/11/24 06:15:16;;;;;;;6.93;3.60;;;;;;;;;;4219142;34;20170;-63
2021/11/24 06:17:43;;;;;;;8.00;4.20;;;;;;;;;;4219457;34;20190;-62
2021/11/24 06:20:13;;;;;;;6.65;4.80;;;;;;;;;;4219012;34;20109;-60
2021/11/24 06:22:40;;;;;;;6.07;4.35;;;;;;;;;;4219415;34;20132;-62
2021/11/24 06:25:07;;;;;;;7.87;4.57;;;;;;;;;;4219117;34;20221;-61
2021/11/24 06:27:33;;;;;;;8.80;5.95;;;;;;;;;;4219431;34;20110;-61
2021/11/24 06:30:00;;;;;;;6.22;4.82;;;;;;;;;;4219264;34;20113;-61
2021/11/24 06:32:26;;;;;;;10.68;5.28;;;;;;;;;;4219141;34;20110;-61
2021/11/24 06:34:52;;;;;;;10.85;5.00;;;;;;;;;;4206642;34;20451;-61
2021/11/24 06:37:18;;;;;;;7.15;4.97;;;;;;;;;;4219097;34;20157;-61
2021/11/24 06:39:44;;;;;;;10.10;6.12;;;;;;;;;;4219112;34;20104;-60
2021/11/24 06:42:10;;;;;;;8.85;5.40;;;;;;;;;;4219122;34;20196;-60
2021/11/24 06:44:36;;;;;;;12.15;5.45;;;;;;;;;;4219235;34;20133;-61
2021/11/24 06:47:02;;;;;;;11.85;5.70;;;;;;;;;;4219113;34;20200;-60
2021/11/24 06:49:28;;;;;;;11.00;6.25;;;;;;;;;;4219235;34;20103;-61
2021/11/24 06:51:54;;;;;;;14.43;5.68;;;;;;;;;;4218694;34;20098;-60
2021/11/24 06:54:21;;;;;;;8.18;5.78;;;;;;;;;;4218552;33;20085;-60
2021/11/24 06:56:48;;;;;;;9.32;5.90;;;;;;;;;;4219131;34;20105;-62
2021/11/24 06:59:14;;;;;;;11.63;5.60;;;;;;;;;;4206461;34;20128;-62
2021/11/24 07:01:41;;;;;;;9.65;6.90;;;;;;;;;;4219309;34;20101;-62
2021/11/24 07:04:07;;;;;;;11.57;6.62;;;;;;;;;;4218842;34;20201;-61
2021/11/24 07:06:33;;;;;;;12.80;6.65;;;;;;;;;;4215639;34;20216;-62
2021/11/24 07:08:59;;;;;;;12.10;6.72;;;;;;;;;;4217421;33;20461;-61
2021/11/24 07:11:31;;;;;;;14.75;7.40;;;;;;;;;;4219037;34;20097;-61
2021/11/24 07:13:58;;;;;;;12.37;7.10;;;;;;;;;;4219036;34;20216;-61
2021/11/24 07:16:24;;;;;;;18.73;8.55;;;;;;;;;;4218895;34;20093;-61
2021/11/24 07:18:50;;;;;;;18.20;10.05;;;;;;;;;;4206062;34;20108;-62
2021/11/24 07:21:16;;;;;;;14.07;8.02;;;;;;;;;;4219043;34;20114;-62
2021/11/24 07:23:42;;;;;;;13.95;7.55;;;;;;;;;;4217930;34;20102;-60
2021/11/24 07:26:08;;;;;;;21.20;10.27;;;;;;;;;;4218792;34;20121;-61
2021/11/24 07:28:34;;;;;;;19.17;10.75;;;;;;;;;;4205869;34;20137;-63
2021/11/24 07:31:00;;;;;;;19.92;9.93;;;;;;;;;;4218977;34;20100;-62
2021/11/24 07:33:26;;;;;;;22.37;12.77;;;;;;;;;;4218670;34;20117;-63
2021/11/24 07:35:52;;;;;;;28.45;14.68;;;;;;;;;;4218983;34;20116;-63
2021/11/24 07:38:18;;;;;;;21.55;12.65;;;;;;;;;;4218192;34;20113;-62
2021/11/24 07:40:44;;;;;;;21.90;11.07;;;;;;;;;;4218790;34;20197;-63
2021/11/24 07:43:10;;;;;;;13.18;8.55;;;;;;;;;;4218334;34;20196;-62
2021/11/24 07:45:36;;;;;;;16.92;8.82;;;;;;;;;;4219060;34;20542;-64
2021/11/24 07:48:03;;;;;;;22.50;7.85;;;;;;;;;;4205624;34;20491;-62
2021/11/24 07:50:29;;;;;;;13.07;7.87;;;;;;;;;;4218747;34;20110;-63
2021/11/24 07:52:55;;;;;;;17.45;8.80;;;;;;;;;;4217601;34;20161;-62
2021/11/24 07:55:21;;;;;;;11.75;7.15;;;;;;;;;;4218761;34;20114;-63
2021/11/24 07:57:47;;;;;;;11.48;6.80;;;;;;;;;;4218512;34;20212;-63
2021/11/24 08:00:14;;;;;;;13.18;6.85;;;;;;;;;;4218720;34;20522;-62
2021/11/24 08:02:40;;;;;;;8.20;5.62;;;;;;;;;;4218484;34;20124;-60
2021/11/24 08:05:07;;;;;;;10.38;6.15;;;;;;;;;;4218607;34;20113;-63
2021/11/24 08:07:38;;;;;;;11.70;6.40;;;;;;;;;;4218241;34;20572;-62
2021/11/24 08:10:06;;;;;;;10.00;6.28;;;;;;;;;;4218241;34;20197;-62
2021/11/24 08:12:32;;;;;;;10.85;6.32;;;;;;;;;;4218356;34;20110;-63
2021/11/24 08:14:58;;;;;;;13.82;6.22;;;;;;;;;;4218443;34;20105;-62
2021/11/24 08:17:25;;;;;;;9.75;5.70;;;;;;;;;;4218367;34;20117;-60
2021/11/24 08:19:51;;;;;;;8.73;5.80;;;;;;;;;;4218353;34;20125;-62
2021/11/24 08:22:17;;;;;;;14.38;7.00;;;;;;;;;;4218048;34;20116;-62
2021/11/24 08:24:43;;;;;;;28.17;7.30;;;;;;;;;;4218528;34;20235;-62
2021/11/24 08:27:10;;;;;;;16.90;7.35;;;;;;;;;;4217857;34;20114;-63
2021/11/24 08:29:36;;;;;;;14.65;7.32;;;;;;;;;;4218463;34;20212;-62
2021/11/24 08:32:02;;;;;;;20.55;7.25;;;;;;;;;;4218253;34;20120;-63
2021/11/24 08:34:28;;;;;;;16.90;7.18;;;;;;;;;;4218040;34;20566;-64
2021/11/24 08:36:54;;;;;;;14.48;6.85;;;;;;;;;;4218329;34;20563;-62
2021/11/24 08:39:21;;;;;;;16.75;7.00;;;;;;;;;;4218249;34;20125;-61
2021/11/24 08:41:47;;;;;;;14.57;8.13;;;;;;;;;;4218117;34;20121;-60
2021/11/24 08:44:14;;;;;;;14.60;7.45;;;;;;;;;;4218028;34;20133;-60
2021/11/24 08:46:40;;;;;;;18.95;7.70;;;;;;;;;;4218630;34;20105;-61
2021/11/24 08:49:06;;;;;;;12.85;6.70;;;;;;;;;;4217944;34;20116;-60
2021/11/24 08:51:33;;;;;;;16.02;6.93;;;;;;;;;;4218125;34;20200;-61
2021/11/24 08:54:00;;;;;;;14.43;6.70;;;;;;;;;;4217249;34;20117;-61
2021/11/24 08:56:26;;;;;;;13.27;7.00;;;;;;;;;;4218136;34;20110;-61
2021/11/24 08:58:52;;;;;;;19.85;7.53;;;;;;;;;;4217439;34;20113;-60
2021/11/24 09:01:18;;;;;;;10.50;5.87;;;;;;;;;;4218031;34;20125;-62
2021/11/24 09:03:44;;;;;;;17.33;6.82;;;;;;;;;;4218098;34;20121;-62
2021/11/24 09:06:10;;;;;;;17.67;6.60;;;;;;;;;;4218204;34;20144;-62
2021/11/24 09:08:36;;;;;;;15.55;6.32;;;;;;;;;;4217754;34;20110;-60
2021/11/24 09:11:03;;;;;;;13.45;5.93;;;;;;;;;;4217889;34;20105;-62
2021/11/24 09:13:29;;;;;;;16.50;5.82;;;;;;;;;;4217568;34;20533;-62
2021/11/24 09:15:55;;;;;;;25.17;6.50;;;;;;;;;;4218083;34;20109;-63
2021/11/24 09:18:21;;;;;;;9.98;5.07;;;;;;;;;;4216914;34;20220;-63
2021/11/24 09:20:47;;;;;;;13.30;5.40;;;;;;;;;;4217273;34;20130;-62
2021/11/24 09:23:17;;;;;;;15.00;5.97;;;;;;;;;;4216467;34;20191;-62
2021/11/24 09:26:20;;;;;;;14.63;6.78;;;;;;;;;;4217208;34;20672;-62
2021/11/24 09:28:36;;;;;;;19.75;6.25;;;;;;;;;;4215807;34;20125;-63
2021/11/24 09:31:03;;;;;;;22.70;6.12;;;;;;;;;;4217636;34;20110;-61
2021/11/24 09:33:30;;;;;;;15.23;6.18;;;;;;;;;;4217629;34;20135;-62
2021/11/24 09:35:56;;;;;;;11.75;5.40;;;;;;;;;;4217686;34;20522;-63
2021/11/24 09:38:23;;;;;;;20.20;5.90;;;;;;;;;;4217287;34;20497;-63
2021/11/24 09:40:53;;;;;;;9.32;5.40;;;;;;;;;;4217653;34;20577;-62
2021/11/24 09:43:19;;;;;;;12.73;5.55;;;;;;;;;;4204475;34;20152;-62
2021/11/24 09:45:46;;;;;;;10.73;5.15;;;;;;;;;;4217381;34;20193;-62
2021/11/24 09:48:15;;;;;;;16.05;6.28;;;;;;;;;;4219011;34;20572;-62
2021/11/24 09:50:42;;;;;;;8.27;5.22;;;;;;;;;;4219617;34;20114;-62
2021/11/24 09:53:11;;;;;;;9.90;5.43;;;;;;;;;;4218780;34;20129;-61
2021/11/24 09:55:39;;;;;;;13.35;7.20;;;;;;;;;;4207086;34;20110;-62
2021/11/24 09:58:06;;;;;;;9.80;5.87;;;;;;;;;;4219366;34;20117;-62
2021/11/24 10:00:34;;;;;;;9.38;5.40;;;;;;;;;;4219652;34;20094;-62
2021/11/24 10:03:01;;;;;;;13.07;5.43;;;;;;;;;;4219281;34;20117;-62
2021/11/24 10:05:28;;;;;;;10.50;5.25;;;;;;;;;;4219613;34;20102;-63
2021/11/24 10:07:55;;;;;;;13.85;5.07;;;;;;;;;;4219239;34;20209;-63
2021/11/24 10:10:22;;;;;;;11.27;5.03;;;;;;;;;;4218857;34;20129;-62
2021/11/24 10:12:48;;;;;;;22.08;5.55;;;;;;;;;;4218252;34;20125;-63
2021/11/24 10:15:33;;;;;;;12.32;5.85;;;;;;;;;;4218156;34;20109;-63
2021/11/24 10:18:12;;;;;;;10.10;5.65;;;;;;;;;;4217393;34;20475;-61
2021/11/24 10:20:52;;;;;;;14.45;5.47;;;;;;;;;;4216883;34;20234;-62
2021/11/24 10:23:26;;;;;;;8.52;4.87;;;;;;;;;;4216989;34;20117;-62
2021/11/24 10:25:52;;;;;;;11.95;5.93;;;;;;;;;;4217422;34;20548;-63
2021/11/24 10:28:29;;;;;;;6.55;5.18;;;;;;;;;;4218465;34;20113;-60
2021/11/24 10:30:56;;;;;;;7.25;5.15;;;;;;;;;;4218282;34;20137;-58
2021/11/24 10:33:26;;;;;;;8.88;4.45;;;;;;;;;;4218303;34;20122;-60
2021/11/24 10:36:15;;;;;;;10.95;5.40;;;;;;;;;;4218630;34;20088;-60
2021/11/24 10:38:47;;;;;;;5.97;4.43;;;;;;;;;;4218082;33;20098;-60
2021/11/24 10:41:25;;;;;;;9.05;4.57;;;;;;;;;;4218219;34;20117;-62
2021/11/24 10:43:51;;;;;;;10.35;4.68;;;;;;;;;;4218470;34;20442;-60
2021/11/24 10:46:23;;;;;;;6.53;4.68;;;;;;;;;;4218146;34;20469;-59
2021/11/24 10:49:03;;;;;;;7.93;4.50;;;;;;;;;;4218389;34;20438;-60
2021/11/24 10:51:32;;;;;;;12.55;4.68;;;;;;;;;;4217911;34;20113;-60
2021/11/24 10:54:11;;;;;;;8.93;4.55;;;;;;;;;;4204748;34;20110;-60
2021/11/24 10:57:15;;;;;;;8.63;4.93;;;;;;;;;;4218474;34;20172;-61
2021/11/24 10:59:44;;;;;;;9.88;4.82;;;;;;;;;;4147417;34;20225;-60
2021/11/24 11:02:29;;;;;;;9.43;5.12;;;;;;;;;;4147907;34;20202;-62
2021/11/24 11:05:01;;;;;;;11.98;5.70;;;;;;;;;;4201504;34;20205;-61
2021/11/24 11:07:29;;;;;;;13.68;4.97;;;;;;;;;;4218396;33;20116;-60
2021/11/24 11:10:06;;;;;;;10.88;5.53;;;;;;;;;;4217860;34;20113;-61
2021/11/24 11:12:33;;;;;;;10.88;5.30;;;;;;;;;;4217908;34;20200;-62
2021/11/24 11:15:11;;;;;;;11.20;4.90;;;;;;;;;;4218051;34;20098;-59
2021/11/24 11:18:03;;;;;;;8.90;5.15;;;;;;;;;;4217683;34;20169;-61
2021/11/24 11:20:44;;;;;;;6.28;4.60;;;;;;;;;;4218563;34;20198;-63
2021/11/24 11:23:19;;;;;;;6.90;5.45;;;;;;;;;;4218410;34;20692;-61
2021/11/24 11:26:06;;;;;;;7.30;6.13;;;;;;;;;;4218961;34;20470;-60
2021/11/24 11:28:37;;;;;;;7.78;6.00;;;;;;;;;;4218741;34;20464;-61
2021/11/24 11:31:09;;;;;;;10.55;5.65;;;;;;;;;;4218627;34;20140;-61
2021/11/24 11:33:41;;;;;;;9.50;5.55;;;;;;;;;;4218718;34;20117;-60
2021/11/24 11:36:09;;;;;;;10.27;5.25;;;;;;;;;;4218892;34;20531;-62
2021/11/24 11:38:36;;;;;;;9.05;4.70;;;;;;;;;;4218573;34;20108;-63
2021/11/24 11:41:03;;;;;;;19.62;5.80;;;;;;;;;;4218591;34;20124;-62
2021/11/24 11:43:30;;;;;;;12.57;5.32;;;;;;;;;;4216153;34;20137;-61
2021/11/24 11:45:56;;;;;;;8.18;4.62;;;;;;;;;;4218816;34;20525;-59
2021/11/24 11:48:27;;;;;;;11.35;5.50;;;;;;;;;;4218465;33;20109;-61
2021/11/24 11:50:56;;;;;;;12.60;5.72;;;;;;;;;;4218535;34;20140;-61
2021/11/24 11:53:25;;;;;;;8.13;4.68;;;;;;;;;;4217351;33;20565;-61
2021/11/24 11:56:10;;;;;;;21.65;6.40;;;;;;;;;;4218296;34;20253;-62
2021/11/24 11:59:02;;;;;;;12.68;4.35;;;;;;;;;;4218556;34;20612;-62
2021/11/24 12:01:33;;;;;;;20.45;5.25;;;;;;;;;;4218413;34;20624;-62
2021/11/24 12:04:07;;;;;;;10.27;5.65;;;;;;;;;;4218447;34;20136;-62
2021/11/24 12:06:38;;;;;;;10.23;5.47;;;;;;;;;;4218602;34;20146;-62
2021/11/24 12:09:07;;;;;;;11.50;5.18;;;;;;;;;;4217821;34;20182;-61
2021/11/24 12:12:08;;;;;;;15.43;5.62;;;;;;;;;;4218510;34;20140;-61
2021/11/24 12:14:46;;;;;;;12.70;4.82;;;;;;;;;;4218521;34;20101;-62
2021/11/24 12:17:36;;;;;;;14.52;5.40;;;;;;;;;;4218354;34;20119;-62
2021/11/24 12:20:11;;;;;;;10.98;5.47;;;;;;;;;;4218465;34;20123;-62
2021/11/24 12:25:18;;;;;;;22.47;6.07;;;;;;;;;;4218498;34;20209;-60
2021/11/24 12:27:50;;;;;;;9.10;4.97;;;;;;;;;;4218554;34;20179;-61
2021/11/24 12:30:37;;;;;;;14.23;5.45;;;;;;;;;;4218379;34;20570;-61
2021/11/24 12:33:21;;;;;;;19.40;5.62;;;;;;;;;;4210950;34;20124;-62
2021/11/24 12:36:08;;;;;;;15.82;5.57;;;;;;;;;;4218468;34;20438;-62
2021/11/24 12:38:49;;;;;;;15.30;5.60;;;;;;;;;;4218606;34;20128;-64
2021/11/24 12:41:26;;;;;;;14.52;5.80;;;;;;;;;;4218354;34;20109;-62
2021/11/24 12:44:06;;;;;;;13.45;5.10;;;;;;;;;;4205649;34;20646;-62
2021/11/24 12:46:34;;;;;;;16.30;5.62;;;;;;;;;;4218362;34;20108;-62
2021/11/24 12:49:10;;;;;;;19.83;6.03;;;;;;;;;;4218384;34;20100;-62
2021/11/24 12:51:46;;;;;;;21.02;6.10;;;;;;;;;;4218386;34;20120;-62
2021/11/24 12:54:14;;;;;;;23.12;6.30;;;;;;;;;;4218163;34;20140;-64
2021/11/24 12:56:43;;;;;;;19.45;6.28;;;;;;;;;;4218078;34;20109;-60
2021/11/24 12:59:12;;;;;;;22.27;6.93;;;;;;;;;;4218218;34;20200;-61
2021/11/24 13:01:46;;;;;;;21.20;5.93;;;;;;;;;;4218037;34;20097;-63
2021/11/24 13:04:19;;;;;;;27.73;7.57;;;;;;;;;;4218188;34;20113;-61
2021/11/24 13:06:51;;;;;;;22.15;6.57;;;;;;;;;;4218238;34;20129;-61
2021/11/24 13:09:21;;;;;;;29.58;6.30;;;;;;;;;;4218371;34;20204;-60
2021/11/24 13:12:00;;;;;;;15.38;6.15;;;;;;;;;;4216917;34;20113;-61
2021/11/24 13:14:38;;;;;;;11.38;6.65;;;;;;;;;;4216809;34;20133;-61
2021/11/24 13:17:07;;;;;;;36.63;7.45;;;;;;;;;;4216628;34;20090;-60
2021/11/24 13:19:35;;;;;;;15.18;6.00;;;;;;;;;;4216388;34;20220;-61
2021/11/24 13:22:01;;;;;;;22.20;6.90;;;;;;;;;;4215670;34;20209;-61
2021/11/24 13:24:27;;;;;;;23.10;6.80;;;;;;;;;;4216329;34;20482;-60
2021/11/24 13:26:57;;;;;;;24.58;7.68;;;;;;;;;;4217627;34;20636;-61
2021/11/24 13:29:25;;;;;;;19.25;8.10;;;;;;;;;;4214928;34;20109;-60
2021/11/24 13:32:05;;;;;;;17.08;6.43;;;;;;;;;;4217726;34;20125;-60
2021/11/24 13:34:31;;;;;;;20.77;6.18;;;;;;;;;;4217815;34;20109;-59
2021/11/24 13:36:57;;;;;;;13.68;5.72;;;;;;;;;;4217723;34;20201;-59
2021/11/24 13:39:28;;;;;;;17.02;5.70;;;;;;;;;;4217650;34;20497;-60
2021/11/24 13:42:07;;;;;;;19.90;6.65;;;;;;;;;;4217825;34;20118;-61
2021/11/24 13:44:33;;;;;;;11.15;5.18;;;;;;;;;;4217914;34;20213;-61
2021/11/24 13:46:59;;;;;;;29.02;8.00;;;;;;;;;;4204922;34;20547;-60
2021/11/24 13:49:28;;;;;;;21.95;7.28;;;;;;;;;;4217706;34;20196;-62
2021/11/24 13:52:04;;;;;;;16.62;7.35;;;;;;;;;;4214760;34;20113;-61
2021/11/24 13:54:30;;;;;;;16.02;9.88;;;;;;;;;;4216754;34;20185;-61
2021/11/24 13:57:03;;;;;;;19.70;7.15;;;;;;;;;;4201574;34;20721;-60
2021/11/24 13:59:32;;;;;;;11.65;5.68;;;;;;;;;;4217328;34;20148;-59
2021/11/24 14:02:10;;;;;;;20.45;6.90;;;;;;;;;;4215156;34;20184;-59
2021/11/24 14:04:42;;;;;;;11.77;5.65;;;;;;;;;;4217259;34;20145;-60
2021/11/24 14:07:10;;;;;;;21.45;6.15;;;;;;;;;;4216823;34;20113;-61
2021/11/24 14:09:39;;;;;;;7.62;5.30;;;;;;;;;;4217269;34;20120;-59
2021/11/24 14:12:22;;;;;;;17.80;5.60;;;;;;;;;;4216558;34;20113;-60
2021/11/24 14:14:59;;;;;;;12.02;5.05;;;;;;;;;;4216958;34;20134;-60
2021/11/24 14:17:43;;;;;;;14.27;5.03;;;;;;;;;;4216823;33;20505;-60
2021/11/24 14:20:21;;;;;;;11.60;4.50;;;;;;;;;;4204374;34;20537;-60
2021/11/24 14:23:00;;;;;;;23.73;9.07;;;;;;;;;;4217207;34;20102;-61
2021/11/24 14:25:38;;;;;;;11.63;5.20;;;;;;;;;;4217034;34;20124;-60
2021/11/24 14:28:16;;;;;;;9.63;5.28;;;;;;;;;;4204375;34;20105;-59
2021/11/24 14:30:44;;;;;;;11.80;5.00;;;;;;;;;;4217104;34;20093;-60
2021/11/24 14:33:11;;;;;;;9.38;5.03;;;;;;;;;;4217984;34;20208;-59
2021/11/24 14:35:37;;;;;;;11.57;5.62;;;;;;;;;;4218966;34;20093;-60
2021/11/24 14:38:04;;;;;;;12.23;6.00;;;;;;;;;;4219227;34;20117;-61
2021/11/24 14:40:31;;;;;;;9.10;6.20;;;;;;;;;;4219210;34;20121;-60
2021/11/24 14:42:58;;;;;;;12.35;5.85;;;;;;;;;;4218123;34;20097;-63
2021/11/24 14:45:25;;;;;;;16.12;7.00;;;;;;;;;;4219163;34;20208;-59
2021/11/24 14:47:53;;;;;;;10.80;5.07;;;;;;;;;;4219205;34;20082;-61
2021/11/24 14:50:19;;;;;;;12.13;6.35;;;;;;;;;;4218979;34;20117;-60
2021/11/24 14:52:47;;;;;;;9.38;5.62;;;;;;;;;;4217601;33;20105;-60
2021/11/24 14:55:14;;;;;;;12.77;5.72;;;;;;;;;;4219081;34;20112;-61
2021/11/24 14:57:42;;;;;;;18.65;6.22;;;;;;;;;;4218802;34;20105;-60
2021/11/24 15:00:10;;;;;;;10.90;5.65;;;;;;;;;;4218473;34;20097;-60
2021/11/24 15:02:36;;;;;;;7.85;5.32;;;;;;;;;;4215957;33;20106;-63
2021/11/24 15:05:03;;;;;;;8.82;5.62;;;;;;;;;;4218775;33;20090;-61
2021/11/24 15:07:29;;;;;;;9.95;5.35;;;;;;;;;;4218300;33;20160;-59
2021/11/24 15:09:56;;;;;;;11.65;5.72;;;;;;;;;;4218982;34;20210;-61